Terminal Aerodrome Forecast
Issued by NWS Charleston, WV

Current Version | Previous Version | Graphics & Text | Print | Product List | Glossary On
Versions: 1 2 3 4 5 6 7 8 9 10 11 12 13 14 15 16 17 18 19 20 21 22 23 24 25 26 27 28 29 30
000
FTUS41 KRLX 180545
TAFPKB
TAF
KPKB 180545Z 1806/1906 VRB03KT 6SM SHRA VCTS OVC035CB
     FM180800 VRB03KT 6SM SHRA BKN020 OVC035
      TEMPO 1808/1812 3SM TSRA OVC015CB
     FM181200 26004KT 5SM SHRA VCTS SCT030 BKN040CB
     FM181500 26006KT P6SM SHRA BKN040
     FM181900 26007KT P6SM SCT040
     FM190100 VRB04KT P6SM FEW070=

USA.gov is the U.S. government's official web portal to all federal, state and local government web resources and services.